createdAt,value
2024-05-09T00:01:57.872Z,87
2024-05-09T00:04:57.862Z,60
2024-05-09T00:06:57.918Z,75
2024-05-09T00:08:57.868Z,83
2024-05-09T00:11:57.948Z,77
2024-05-09T00:13:57.987Z,83
2024-05-09T00:15:57.941Z,83
2024-05-09T00:18:58.011Z,88
2024-05-09T00:21:57.835Z,75
2024-05-09T00:24:57.815Z,84
2024-05-09T00:26:57.854Z,84
2024-05-09T00:29:57.833Z,109
2024-05-09T00:31:57.853Z,82
2024-05-09T00:34:57.832Z,80
2024-05-09T00:36:57.871Z,77
2024-05-09T00:39:57.832Z,96
2024-05-09T00:41:58.331Z,80
2024-05-09T00:43:58.134Z,69
2024-05-09T00:45:58.277Z,65
2024-05-09T00:48:58.102Z,79
2024-05-09T00:50:57.938Z,69
2024-05-09T00:52:59.495Z,89
2024-05-09T00:54:58.035Z,68
2024-05-09T00:57:59.409Z,89
2024-05-09T01:01:00.546Z,80
2024-05-09T01:03:57.932Z,65
2024-05-09T01:05:57.939Z,75
2024-05-09T01:08:57.854Z,78
2024-05-09T01:11:57.871Z,77
2024-05-09T01:13:57.832Z,81
2024-05-09T01:16:57.867Z,70
2024-05-09T01:18:57.836Z,72
2024-05-09T01:21:57.841Z,64
2024-05-09T01:24:57.854Z,72
2024-05-09T01:27:57.943Z,89
2024-05-09T01:30:58.011Z,77
2024-05-09T01:32:58.045Z,84
2024-05-09T01:35:57.837Z,67
2024-05-09T01:38:57.810Z,75
2024-05-09T01:40:57.844Z,72
2024-05-09T01:43:57.855Z,92
2024-05-09T01:45:57.878Z,67
2024-05-09T01:48:57.877Z,73
2024-05-09T01:51:57.809Z,111
2024-05-09T01:53:57.877Z,74
2024-05-09T01:56:57.833Z,68
2024-05-09T01:59:57.875Z,69
2024-05-09T02:02:57.991Z,88
2024-05-09T02:04:57.943Z,90
2024-05-09T02:06:57.855Z,70
2024-05-09T02:09:57.825Z,79
2024-05-09T02:12:57.835Z,94
2024-05-09T02:14:57.871Z,91
2024-05-09T02:16:57.877Z,74
2024-05-09T02:19:57.879Z,75
2024-05-09T02:22:57.859Z,65
2024-05-09T02:24:57.855Z,75
2024-05-09T02:27:57.882Z,80
2024-05-09T02:30:57.845Z,75
2024-05-09T02:32:58.087Z,83
2024-05-09T02:35:57.881Z,73
2024-05-09T02:38:57.850Z,79
2024-05-09T02:40:57.882Z,79
2024-05-09T02:42:57.860Z,75
2024-05-09T02:45:57.852Z,79
2024-05-09T02:47:58.137Z,76
2024-05-09T02:50:57.861Z,93
2024-05-09T02:52:57.910Z,75
2024-05-09T02:54:57.950Z,104
2024-05-09T02:57:57.826Z,79
2024-05-09T02:59:57.847Z,84
2024-05-09T03:02:57.925Z,112
2024-05-09T03:05:57.888Z,97
2024-05-09T03:07:57.914Z,77
2024-05-09T03:10:57.957Z,83
2024-05-09T03:13:57.908Z,82
2024-05-09T03:15:57.861Z,101
2024-05-09T03:18:57.896Z,94
2024-05-09T03:20:57.895Z,86
2024-05-09T03:23:57.836Z,78
2024-05-09T03:26:57.850Z,121
2024-05-09T03:29:57.851Z,89
2024-05-09T03:31:57.901Z,87
2024-05-09T03:33:58.185Z,91
2024-05-09T03:36:57.853Z,90
2024-05-09T03:38:57.855Z,90
2024-05-09T03:40:57.878Z,92
2024-05-09T03:42:57.859Z,104
2024-05-09T03:44:57.901Z,102
2024-05-09T03:47:58.042Z,113
2024-05-09T03:50:57.915Z,105
2024-05-09T03:53:57.893Z,116
2024-05-09T03:55:57.919Z,98
2024-05-09T03:57:57.895Z,93
2024-05-09T04:00:57.872Z,109
2024-05-09T04:02:57.914Z,96
2024-05-09T04:04:58.187Z,103
2024-05-09T04:07:57.907Z,101
2024-05-09T04:09:57.860Z,108
2024-05-09T04:12:57.849Z,92
2024-05-09T04:14:57.859Z,90
2024-05-09T04:16:57.859Z,109
2024-05-09T04:19:57.876Z,108
2024-05-09T04:21:57.880Z,103
2024-05-09T04:23:57.836Z,100
2024-05-09T04:26:57.887Z,108
2024-05-09T04:29:57.863Z,107
2024-05-09T04:31:57.894Z,101
2024-05-09T04:33:58.086Z,92
2024-05-09T04:36:57.862Z,105
2024-05-09T04:38:57.898Z,112
2024-05-09T04:41:57.883Z,113
2024-05-09T04:43:57.943Z,105
2024-05-09T04:45:57.930Z,107
2024-05-09T04:48:57.922Z,121
2024-05-09T04:50:57.867Z,115
2024-05-09T04:53:57.881Z,130
2024-05-09T04:55:57.912Z,104
2024-05-09T04:58:57.870Z,105
2024-05-09T05:00:57.935Z,102
2024-05-09T05:03:59.272Z,136
2024-05-09T05:08:57.904Z,126
2024-05-09T05:11:57.907Z,129
2024-05-09T05:14:57.885Z,105
2024-05-09T05:16:57.922Z,146
2024-05-09T05:19:57.921Z,129
2024-05-09T05:22:57.885Z,121
2024-05-09T05:25:57.870Z,110
2024-05-09T05:28:57.914Z,132
2024-05-09T05:30:57.884Z,122
2024-05-09T05:33:57.968Z,119
2024-05-09T05:36:57.896Z,110
2024-05-09T05:39:57.859Z,107
2024-05-09T05:42:57.968Z,127
2024-05-09T05:44:57.869Z,148
2024-05-09T05:46:57.990Z,116
2024-05-09T05:49:57.891Z,137
2024-05-09T05:52:57.879Z,135
2024-05-09T05:55:58.334Z,126
2024-05-09T05:58:57.894Z,126
2024-05-09T06:00:57.930Z,126
2024-05-09T06:03:58.152Z,130
2024-05-09T06:06:57.890Z,124
2024-05-09T06:09:57.860Z,137
2024-05-09T06:11:57.958Z,111
2024-05-09T06:14:57.894Z,113
2024-05-09T06:17:58.063Z,104
2024-05-09T06:20:57.914Z,126
2024-05-09T06:22:57.898Z,132
2024-05-09T06:25:58.036Z,147
2024-05-09T06:28:57.885Z,123
2024-05-09T06:30:57.883Z,123
2024-05-09T06:32:57.918Z,122
2024-05-09T06:35:57.882Z,121
2024-05-09T06:38:57.852Z,150
2024-05-09T06:40:57.936Z,138
2024-05-09T06:43:57.905Z,136
2024-05-09T06:45:58.025Z,141
2024-05-09T06:48:58.029Z,127
2024-05-09T06:50:57.932Z,124
2024-05-09T06:53:57.850Z,129
2024-05-09T06:55:57.923Z,142
2024-05-09T06:57:57.875Z,160
2024-05-09T06:59:57.895Z,135
2024-05-09T07:02:59.675Z,137
2024-05-09T07:05:57.930Z,153
2024-05-09T07:08:57.836Z,153
2024-05-09T07:10:57.903Z,143
2024-05-09T07:13:57.890Z,150
2024-05-09T07:16:58.004Z,159
2024-05-09T07:19:57.904Z,159
2024-05-09T07:21:57.865Z,73
2024-05-09T07:24:57.885Z,86
2024-05-09T07:27:57.879Z,156
2024-05-09T07:29:57.921Z,141
2024-05-09T07:32:58.102Z,118
2024-05-09T07:34:57.906Z,78
2024-05-09T07:37:58.002Z,63
2024-05-09T07:40:57.970Z,81
2024-05-09T07:43:57.945Z,74
2024-05-09T07:46:00.634Z,95
2024-05-09T07:49:45.179Z,134
2024-05-09T07:53:59.833Z,119
2024-05-09T07:55:58.407Z,61
2024-05-09T07:58:57.934Z,124
2024-05-09T08:01:58.040Z,58
2024-05-09T08:04:57.960Z,105
2024-05-09T08:06:57.968Z,155
2024-05-09T08:08:59.215Z,95
2024-05-09T08:11:57.916Z,69
2024-05-09T08:13:57.886Z,72
2024-05-09T08:16:57.899Z,84
2024-05-09T08:18:58.084Z,123
2024-05-09T08:20:58.037Z,95
2024-05-09T08:22:57.883Z,82
2024-05-09T08:24:57.888Z,66
2024-05-09T08:27:57.921Z,90
2024-05-09T08:30:58.045Z,60
2024-05-09T08:32:58.023Z,61
2024-05-09T08:34:57.999Z,80
2024-05-09T08:37:57.941Z,57
2024-05-09T08:39:57.917Z,58
2024-05-09T08:42:57.969Z,62
2024-05-09T08:45:58.046Z,57
2024-05-09T08:47:58.001Z,75
2024-05-09T08:50:57.899Z,64
2024-05-09T08:52:57.928Z,66
2024-05-09T08:55:57.919Z,65
2024-05-09T08:58:57.923Z,80
2024-05-09T09:01:57.931Z,60
2024-05-09T09:03:57.966Z,67
2024-05-09T09:06:58.739Z,68
2024-05-09T09:08:57.909Z,55
2024-05-09T09:11:57.938Z,56
2024-05-09T09:14:57.906Z,73
2024-05-09T09:16:57.910Z,61
2024-05-09T09:19:57.980Z,65
2024-05-09T09:22:57.884Z,70
2024-05-09T09:24:57.925Z,73
2024-05-09T09:27:58.097Z,61
2024-05-09T09:30:57.922Z,57
2024-05-09T09:32:57.985Z,56
2024-05-09T09:34:57.993Z,67
2024-05-09T09:37:57.892Z,57
2024-05-09T09:39:58.125Z,56
2024-05-09T09:41:58.161Z,65
2024-05-09T09:45:01.907Z,55
2024-05-09T09:46:57.974Z,54
2024-05-09T09:48:57.968Z,53
2024-05-09T09:51:57.956Z,61
2024-05-09T09:53:57.922Z,58
2024-05-09T09:56:57.925Z,47
2024-05-09T09:59:57.911Z,73
2024-05-09T10:02:57.987Z,56
2024-05-09T10:05:58.230Z,58
2024-05-09T10:07:57.896Z,76
2024-05-09T10:10:57.974Z,92
2024-05-09T10:13:57.897Z,82
2024-05-09T10:15:58.004Z,83
2024-05-09T10:18:58.269Z,64
2024-05-09T10:21:57.913Z,85
2024-05-09T10:23:57.938Z,69
2024-05-09T10:26:57.907Z,67
2024-05-09T10:29:57.942Z,78
2024-05-09T10:32:57.917Z,57
2024-05-09T10:35:57.926Z,70
2024-05-09T10:37:57.937Z,54
2024-05-09T10:40:57.940Z,92
2024-05-09T10:42:57.919Z,68
2024-05-09T10:44:57.918Z,79
2024-05-09T10:46:57.935Z,66
2024-05-09T10:49:57.937Z,88
2024-05-09T10:51:57.939Z,49
2024-05-09T10:53:57.907Z,52
2024-05-09T10:56:57.991Z,67
2024-05-09T10:59:57.902Z,56
2024-05-09T11:01:58.061Z,61
2024-05-09T11:03:58.017Z,53
2024-05-09T11:05:57.938Z,75
2024-05-09T11:08:57.934Z,65
2024-05-09T11:10:57.934Z,57
2024-05-09T11:13:57.951Z,45
2024-05-09T11:16:57.924Z,66
2024-05-09T11:19:57.947Z,56
2024-05-09T11:22:57.926Z,59
2024-05-09T11:25:57.950Z,52
2024-05-09T11:27:57.959Z,36
2024-05-09T11:30:57.930Z,38
2024-05-09T11:32:57.988Z,42
2024-05-09T11:34:57.932Z,37
2024-05-09T11:37:57.926Z,59
2024-05-09T11:39:58.069Z,48
2024-05-09T11:42:57.953Z,44
2024-05-09T11:44:57.966Z,49
2024-05-09T11:47:58.109Z,62
2024-05-09T11:50:57.962Z,54
2024-05-09T11:52:57.926Z,43
2024-05-09T11:55:57.971Z,49
2024-05-09T11:58:57.939Z,48
2024-05-09T12:01:57.955Z,50
2024-05-09T12:03:58.336Z,46
2024-05-09T12:06:58.030Z,46
2024-05-09T12:09:58.070Z,40
2024-05-09T12:12:57.940Z,53
2024-05-09T12:14:57.931Z,43
2024-05-09T12:16:58.035Z,62
2024-05-09T12:19:57.934Z,43
2024-05-09T12:22:57.918Z,69
2024-05-09T12:24:57.940Z,48
2024-05-09T12:27:57.964Z,57
2024-05-09T12:30:57.950Z,41
2024-05-09T12:33:58.002Z,49
2024-05-09T12:35:57.957Z,46
2024-05-09T12:38:57.968Z,64
2024-05-09T12:41:57.943Z,37
2024-05-09T12:44:57.954Z,45
2024-05-09T12:46:57.971Z,45
2024-05-09T12:49:57.961Z,56
2024-05-09T12:51:58.028Z,67
2024-05-09T12:54:57.964Z,47
2024-05-09T12:57:57.984Z,45
2024-05-09T12:59:57.996Z,42
2024-05-09T13:02:58.030Z,46
2024-05-09T13:05:58.017Z,51
2024-05-09T13:08:57.952Z,52
2024-05-09T13:10:57.990Z,47
2024-05-09T13:13:57.948Z,45
2024-05-09T13:15:58.031Z,54
2024-05-09T13:18:58.006Z,43
2024-05-09T13:20:57.959Z,37
2024-05-09T13:23:58.380Z,41
2024-05-09T13:25:58.003Z,45
2024-05-09T13:27:58.063Z,40
2024-05-09T13:30:57.981Z,54
2024-05-09T13:33:58.102Z,33
2024-05-09T13:36:57.972Z,41
2024-05-09T13:38:58.004Z,44
2024-05-09T13:40:58.016Z,44
2024-05-09T13:43:58.026Z,38
2024-05-09T13:45:58.047Z,44
2024-05-09T13:48:58.135Z,31
2024-05-09T13:51:57.969Z,52
2024-05-09T13:53:57.979Z,32
2024-05-09T13:55:57.962Z,39
2024-05-09T13:57:58.476Z,29
2024-05-09T14:00:58.075Z,41
2024-05-09T14:02:58.029Z,32
2024-05-09T14:05:58.173Z,34
2024-05-09T14:08:57.978Z,32
2024-05-09T14:10:58.030Z,66
2024-05-09T14:13:57.985Z,37
2024-05-09T14:16:58.003Z,31
2024-05-09T14:18:58.053Z,34
2024-05-09T14:21:58.049Z,40
2024-05-09T14:23:57.996Z,43
2024-05-09T14:26:58.014Z,23
2024-05-09T14:28:58.001Z,46
2024-05-09T14:31:57.999Z,28
2024-05-09T14:33:58.116Z,33
2024-05-09T14:35:58.066Z,60
2024-05-09T14:38:57.982Z,37
2024-05-09T14:40:58.120Z,33
2024-05-09T14:43:00.336Z,34
2024-05-09T14:45:58.034Z,30
2024-05-09T14:48:58.052Z,31
2024-05-09T14:50:57.999Z,24
2024-05-09T14:52:58.005Z,30
2024-05-09T14:55:58.051Z,47
2024-05-09T14:58:57.987Z,32
2024-05-09T15:00:58.108Z,45
2024-05-09T15:02:58.072Z,28
2024-05-09T15:05:58.386Z,45
2024-05-09T15:07:57.992Z,51
2024-05-09T15:09:58.047Z,37
2024-05-09T15:12:58.007Z,27
2024-05-09T15:14:57.996Z,32
2024-05-09T15:16:58.008Z,36
2024-05-09T15:18:58.090Z,43
2024-05-09T15:21:58.133Z,39
2024-05-09T15:23:57.986Z,46
2024-05-09T15:25:57.990Z,31
2024-05-09T15:28:58.012Z,27
2024-05-09T15:30:58.056Z,38
2024-05-09T15:33:58.070Z,46
2024-05-09T15:35:58.019Z,32
2024-05-09T15:38:58.025Z,37
2024-05-09T15:40:58.052Z,52
2024-05-09T15:43:58.028Z,27
2024-05-09T15:46:58.019Z,36
2024-05-09T15:49:58.074Z,27
2024-05-09T15:51:58.261Z,39
2024-05-09T15:54:58.072Z,31
2024-05-09T15:57:58.022Z,38
2024-05-09T16:00:58.090Z,20
2024-05-09T16:02:58.097Z,29
2024-05-09T16:05:58.051Z,25
2024-05-09T16:08:57.999Z,41
2024-05-09T16:10:58.192Z,33
2024-05-09T16:13:58.029Z,43
2024-05-09T16:16:58.090Z,39
2024-05-09T16:19:58.025Z,24
2024-05-09T16:21:58.118Z,41
2024-05-09T16:24:58.075Z,41
2024-05-09T16:27:58.102Z,27
2024-05-09T16:29:58.021Z,26
2024-05-09T16:32:58.105Z,41
2024-05-09T16:34:58.091Z,26
2024-05-09T16:37:58.034Z,42
2024-05-09T16:40:58.041Z,47
2024-05-09T16:42:58.050Z,29
2024-05-09T16:45:58.072Z,34
2024-05-09T16:48:58.116Z,39
2024-05-09T16:51:58.116Z,44
2024-05-09T16:54:58.041Z,44
2024-05-09T16:57:58.219Z,25
2024-05-09T16:59:58.042Z,59
2024-05-09T17:02:58.181Z,34
2024-05-09T17:04:58.093Z,47
2024-05-09T17:07:58.027Z,37
2024-05-09T17:09:58.170Z,36
2024-05-09T17:12:58.054Z,37
2024-05-09T17:14:58.028Z,37
2024-05-09T17:17:58.146Z,32
2024-05-09T17:19:58.016Z,25
2024-05-09T17:21:58.049Z,38
2024-05-09T17:24:58.071Z,55
2024-05-09T17:26:58.074Z,39
2024-05-09T17:29:58.017Z,57
2024-05-09T17:31:58.034Z,45
2024-05-09T17:34:58.082Z,36
2024-05-09T17:37:58.126Z,33
2024-05-09T17:40:58.162Z,42
2024-05-09T17:43:58.095Z,34
2024-05-09T17:46:58.076Z,24
2024-05-09T17:49:58.186Z,29
2024-05-09T17:52:58.071Z,25
2024-05-09T17:55:58.063Z,37
2024-05-09T17:57:58.214Z,37
2024-05-09T17:59:58.061Z,43
2024-05-09T18:02:58.084Z,43
2024-05-09T18:04:58.155Z,61
2024-05-09T18:06:58.077Z,34
2024-05-09T18:08:58.090Z,65
2024-05-09T18:11:58.282Z,47
2024-05-09T18:13:58.059Z,25
2024-05-09T18:16:58.108Z,54
2024-05-09T18:19:58.080Z,36
2024-05-09T18:22:58.075Z,41
2024-05-09T18:24:58.103Z,48
2024-05-09T18:26:58.079Z,42
2024-05-09T18:28:58.104Z,35
2024-05-09T18:31:58.169Z,43
2024-05-09T18:33:58.240Z,50
2024-05-09T18:36:58.853Z,50
2024-05-09T18:38:58.101Z,51
2024-05-09T18:41:58.071Z,79
2024-05-09T18:44:58.092Z,49
2024-05-09T18:47:58.387Z,49
2024-05-09T18:49:58.219Z,49
2024-05-09T18:52:58.066Z,57
2024-05-09T18:55:58.086Z,49
2024-05-09T18:58:58.084Z,47
2024-05-09T19:00:59.934Z,52
2024-05-09T19:02:58.267Z,38
2024-05-09T19:04:58.236Z,54
2024-05-09T19:07:58.070Z,47
2024-05-09T19:10:58.132Z,63
2024-05-09T19:12:58.077Z,62
2024-05-09T19:15:58.085Z,74
2024-05-09T19:17:58.181Z,71
2024-05-09T19:19:58.125Z,42
2024-05-09T19:22:58.074Z,38
2024-05-09T19:25:58.072Z,53
2024-05-09T19:27:58.205Z,49
2024-05-09T19:29:58.142Z,33
2024-05-09T19:32:58.123Z,42
2024-05-09T19:34:58.111Z,66
2024-05-09T19:37:58.089Z,46
2024-05-09T19:40:58.186Z,48
2024-05-09T19:43:58.444Z,69
2024-05-09T19:45:58.164Z,48
2024-05-09T19:48:58.181Z,62
2024-05-09T19:51:58.090Z,37
2024-05-09T19:53:58.098Z,59
2024-05-09T19:56:58.105Z,49
2024-05-09T19:59:58.067Z,55
2024-05-09T20:01:58.211Z,51
2024-05-09T20:03:58.187Z,38
2024-05-09T20:06:58.131Z,47
2024-05-09T20:09:58.146Z,54
2024-05-09T20:11:58.143Z,38
2024-05-09T20:13:58.158Z,72
2024-05-09T20:16:58.116Z,67
2024-05-09T20:18:58.238Z,44
2024-05-09T20:21:58.165Z,63
2024-05-09T20:23:58.103Z,63
2024-05-09T20:26:58.108Z,86
2024-05-09T20:28:58.093Z,44
2024-05-09T20:30:58.276Z,40
2024-05-09T20:33:58.152Z,46
2024-05-09T20:35:58.822Z,45
2024-05-09T20:37:58.144Z,49
2024-05-09T20:39:58.115Z,40
2024-05-09T20:42:58.147Z,72
2024-05-09T20:44:58.119Z,57
2024-05-09T20:47:58.378Z,58
2024-05-09T20:50:58.116Z,57
2024-05-09T20:53:58.127Z,46
2024-05-09T20:56:58.098Z,54
2024-05-09T20:59:58.103Z,58
2024-05-09T21:01:58.206Z,58
2024-05-09T21:04:58.185Z,48
2024-05-09T21:06:58.134Z,48
2024-05-09T21:08:58.107Z,39
2024-05-09T21:11:58.113Z,57
2024-05-09T21:14:58.126Z,47
2024-05-09T21:16:58.216Z,37
2024-05-09T21:19:58.109Z,75
2024-05-09T21:22:58.120Z,59
2024-05-09T21:24:58.168Z,54
2024-05-09T21:27:58.272Z,58
2024-05-09T21:29:58.144Z,63
2024-05-09T21:32:58.182Z,42
2024-05-09T21:34:58.207Z,53
2024-05-09T21:36:58.133Z,52
2024-05-09T21:39:58.094Z,46
2024-05-09T21:41:58.124Z,63
2024-05-09T21:44:58.131Z,70
2024-05-09T21:47:58.189Z,47
2024-05-09T21:50:58.113Z,59
2024-05-09T21:52:58.137Z,48
2024-05-09T21:55:58.127Z,51
2024-05-09T21:57:58.184Z,49
2024-05-09T22:00:58.164Z,48
2024-05-09T22:03:58.211Z,49
2024-05-09T22:05:58.145Z,60
2024-05-09T22:08:58.111Z,48
2024-05-09T22:11:58.265Z,62
2024-05-09T22:14:58.194Z,59
2024-05-09T22:17:58.235Z,41
2024-05-09T22:20:58.128Z,50
2024-05-09T22:23:58.160Z,45
2024-05-09T22:26:58.141Z,65
2024-05-09T22:29:58.126Z,67
2024-05-09T22:31:58.178Z,44
2024-05-09T22:34:58.124Z,57
2024-05-09T22:36:58.281Z,66
2024-05-09T22:39:58.153Z,48
2024-05-09T22:41:58.138Z,52
2024-05-09T22:43:58.141Z,50
2024-05-09T22:46:58.159Z,53
2024-05-09T22:48:58.339Z,48
2024-05-09T22:51:58.246Z,75
2024-05-09T22:54:58.142Z,48
2024-05-09T22:56:58.141Z,52
2024-05-09T22:58:58.250Z,54
2024-05-09T23:01:58.214Z,50
2024-05-09T23:03:58.267Z,43
2024-05-09T23:05:58.134Z,49
2024-05-09T23:08:58.127Z,62
2024-05-09T23:10:58.238Z,45
2024-05-09T23:13:58.101Z,44
2024-05-09T23:15:58.164Z,42
2024-05-09T23:18:58.172Z,48
2024-05-09T23:20:58.117Z,60
2024-05-09T23:23:58.158Z,41
2024-05-09T23:26:58.178Z,64
2024-05-09T23:29:58.142Z,81
2024-05-09T23:31:58.127Z,77
2024-05-09T23:34:58.227Z,66
2024-05-09T23:36:58.136Z,56
2024-05-09T23:38:58.148Z,58
2024-05-09T23:41:58.140Z,47
2024-05-09T23:44:58.139Z,65
2024-05-09T23:46:58.137Z,50
2024-05-09T23:48:58.167Z,94
2024-05-09T23:51:58.209Z,63
2024-05-09T23:54:58.168Z,48
2024-05-09T23:56:58.100Z,71
2024-05-09T23:58:58.108Z,49
